Aviation Digital Data Service (ADDS)

Output produced by TAFs form (0122 UTC 27 April 2017)
found at http://www.aviationweather.gov/adds/tafs/
 
METAR text: RJCN 270100Z 14005KT 060V180 9999 FEW025 FEW030CB SCT040 BKN060 12/03 Q0999
Conditions at: RJCN (NAKASHIBETSU ARP, JP) observed 0100 UTC 27 April 2017
Temperature: 12.0°C (54°F)
Dewpoint: 3.0°C (37°F) [RH = 54%]
Pressure (altimeter): 29.50 inches Hg (999.0 mb)
Winds: from the SE (140 degrees) at 6 MPH (5 knots; 2.6 m/s)
Visibility: 6 or more miles (10+ km)
Ceiling: 6000 feet AGL
Clouds: few clouds at 2500 feet AGL
few clouds at 3000 feet AGL
scattered clouds at 4000 feet AGL
broken clouds at 6000 feet AGL
Weather: no significant weather observed at this time